Clarence, New York
Current Conditions -  °F | °C
As of 12:54 AM on Monday 24 Nov 2014 (Local Time) from KBUF Reporting Station
Light Rain Light Rain  
Wind Chill: 50°   Ceiling: 8500
Heat Index: 50°   Visibility: 10mi
Dew Point: 43°   Wind: 14mph
Humidity: 77%   Direction: 130°SE
Pressure: 29.49"   Gusts: NA
Location:  42.98°N, 78.59°W
Report Text: KBUF 240554Z 13012KT 10SM -RA FEW050 OVC085 10/06 A2949 RMK AO2 PRESFR SLP987 P0003 60004 T01000061 10122 20100 58063
Loading
Personal Weather Stations






























Interactive Weather Map New forecast layout! Learn more

10-Day Weather Forecast

Advertisements
Track Severe Weather on mobile